sensor_id;sensor_type;location;lat;lon;timestamp;P1;durP1;ratioP1;P2;durP2;ratioP2
69280;SDS011;56392;51.082;17.080;2023-02-01T00:01:57;9.70;;;0.50;;
69280;SDS011;56392;51.082;17.080;2023-02-01T00:07:21;3.13;;;0.47;;
69280;SDS011;56392;51.082;17.080;2023-02-01T00:12:44;4.67;;;0.57;;
69280;SDS011;56392;51.082;17.080;2023-02-01T00:18:09;6.30;;;0.80;;
69280;SDS011;56392;51.082;17.080;2023-02-01T00:23:32;9.35;;;1.17;;
69280;SDS011;56392;51.082;17.080;2023-02-01T00:28:55;5.30;;;0.70;;
69280;SDS011;56392;51.082;17.080;2023-02-01T00:34:20;8.03;;;0.70;;
69280;SDS011;56392;51.082;17.080;2023-02-01T00:39:43;6.00;;;0.70;;
69280;SDS011;56392;51.082;17.080;2023-02-01T00:45:06;4.45;;;0.73;;
69280;SDS011;56392;51.082;17.080;2023-02-01T00:50:32;5.23;;;0.90;;
69280;SDS011;56392;51.082;17.080;2023-02-01T00:55:55;5.80;;;0.82;;
69280;SDS011;56392;51.082;17.080;2023-02-01T01:01:19;5.40;;;0.80;;
69280;SDS011;56392;51.082;17.080;2023-02-01T01:06:44;7.23;;;0.90;;
69280;SDS011;56392;51.082;17.080;2023-02-01T01:12:07;7.27;;;0.90;;
69280;SDS011;56392;51.082;17.080;2023-02-01T01:17:31;8.43;;;1.25;;
69280;SDS011;56392;51.082;17.080;2023-02-01T01:22:55;8.30;;;1.13;;
69280;SDS011;56392;51.082;17.080;2023-02-01T01:28:19;7.97;;;1.30;;
69280;SDS011;56392;51.082;17.080;2023-02-01T01:33:42;8.02;;;1.40;;
69280;SDS011;56392;51.082;17.080;2023-02-01T01:39:07;5.85;;;1.05;;
69280;SDS011;56392;51.082;17.080;2023-02-01T01:50:23;4.70;;;0.50;;
69280;SDS011;56392;51.082;17.080;2023-02-01T01:55:51;5.47;;;0.80;;
69280;SDS011;56392;51.082;17.080;2023-02-01T02:01:16;4.87;;;0.80;;
69280;SDS011;56392;51.082;17.080;2023-02-01T02:06:41;7.97;;;1.33;;
69280;SDS011;56392;51.082;17.080;2023-02-01T02:12:11;7.72;;;1.40;;
69280;SDS011;56392;51.082;17.080;2023-02-01T02:17:35;9.20;;;1.10;;
69280;SDS011;56392;51.082;17.080;2023-02-01T02:23:18;8.00;;;1.30;;
69280;SDS011;56392;51.082;17.080;2023-02-01T02:29:09;8.98;;;1.60;;
69280;SDS011;56392;51.082;17.080;2023-02-01T02:34:52;9.55;;;2.17;;
69280;SDS011;56392;51.082;17.080;2023-02-01T02:40:19;9.00;;;1.63;;
69280;SDS011;56392;51.082;17.080;2023-02-01T02:45:49;11.05;;;2.00;;
69280;SDS011;56392;51.082;17.080;2023-02-01T02:51:34;13.52;;;2.15;;
69280;SDS011;56392;51.082;17.080;2023-02-01T02:57:19;15.33;;;1.83;;
69280;SDS011;56392;51.082;17.080;2023-02-01T03:03:02;10.77;;;1.80;;
69280;SDS011;56392;51.082;17.080;2023-02-01T03:08:44;8.10;;;1.60;;
69280;SDS011;56392;51.082;17.080;2023-02-01T03:14:08;13.60;;;1.70;;
69280;SDS011;56392;51.082;17.080;2023-02-01T03:19:34;9.83;;;1.57;;
69280;SDS011;56392;51.082;17.080;2023-02-01T03:25:07;10.32;;;1.60;;
69280;SDS011;56392;51.082;17.080;2023-02-01T03:30:36;13.57;;;1.80;;
69280;SDS011;56392;51.082;17.080;2023-02-01T03:36:05;12.97;;;1.60;;
69280;SDS011;56392;51.082;17.080;2023-02-01T03:41:40;10.27;;;1.60;;
69280;SDS011;56392;51.082;17.080;2023-02-01T03:47:05;10.40;;;1.98;;
69280;SDS011;56392;51.082;17.080;2023-02-01T03:52:32;11.63;;;1.73;;
69280;SDS011;56392;51.082;17.080;2023-02-01T03:58:03;14.17;;;1.90;;
69280;SDS011;56392;51.082;17.080;2023-02-01T04:03:29;13.02;;;1.80;;
69280;SDS011;56392;51.082;17.080;2023-02-01T04:08:53;14.25;;;1.70;;
69280;SDS011;56392;51.082;17.080;2023-02-01T04:14:18;12.57;;;1.70;;
69280;SDS011;56392;51.082;17.080;2023-02-01T04:19:41;9.77;;;1.42;;
69280;SDS011;56392;51.082;17.080;2023-02-01T04:25:04;12.23;;;1.50;;
69280;SDS011;56392;51.082;17.080;2023-02-01T04:30:30;10.40;;;1.70;;
69280;SDS011;56392;51.082;17.080;2023-02-01T04:35:56;11.63;;;1.60;;
69280;SDS011;56392;51.082;17.080;2023-02-01T04:41:19;9.50;;;1.50;;
69280;SDS011;56392;51.082;17.080;2023-02-01T04:46:45;12.43;;;1.60;;
69280;SDS011;56392;51.082;17.080;2023-02-01T04:52:09;12.17;;;1.53;;
69280;SDS011;56392;51.082;17.080;2023-02-01T04:57:32;8.90;;;1.55;;
69280;SDS011;56392;51.082;17.080;2023-02-01T05:02:56;12.20;;;2.13;;
69280;SDS011;56392;51.082;17.080;2023-02-01T05:08:19;12.63;;;2.20;;
69280;SDS011;56392;51.082;17.080;2023-02-01T05:13:43;11.60;;;1.73;;
69280;SDS011;56392;51.082;17.080;2023-02-01T05:19:14;11.07;;;1.90;;
69280;SDS011;56392;51.082;17.080;2023-02-01T05:24:37;12.70;;;2.00;;
69280;SDS011;56392;51.082;17.080;2023-02-01T05:30:00;7.63;;;1.58;;
69280;SDS011;56392;51.082;17.080;2023-02-01T05:35:26;10.95;;;2.00;;
69280;SDS011;56392;51.082;17.080;2023-02-01T05:40:50;11.70;;;1.90;;
69280;SDS011;56392;51.082;17.080;2023-02-01T05:46:13;13.27;;;1.73;;
69280;SDS011;56392;51.082;17.080;2023-02-01T05:51:37;10.88;;;1.80;;
69280;SDS011;56392;51.082;17.080;2023-02-01T05:57:00;11.48;;;1.67;;
69280;SDS011;56392;51.082;17.080;2023-02-01T06:02:23;13.33;;;1.90;;
69280;SDS011;56392;51.082;17.080;2023-02-01T06:07:51;13.32;;;1.50;;
69280;SDS011;56392;51.082;17.080;2023-02-01T06:13:14;11.48;;;1.60;;
69280;SDS011;56392;51.082;17.080;2023-02-01T06:18:38;11.20;;;1.70;;
69280;SDS011;56392;51.082;17.080;2023-02-01T06:24:04;9.48;;;1.90;;
69280;SDS011;56392;51.082;17.080;2023-02-01T06:29:27;11.93;;;1.70;;
69280;SDS011;56392;51.082;17.080;2023-02-01T06:34:51;11.10;;;1.80;;
69280;SDS011;56392;51.082;17.080;2023-02-01T06:40:17;12.20;;;1.73;;
69280;SDS011;56392;51.082;17.080;2023-02-01T06:45:40;12.60;;;1.60;;
69280;SDS011;56392;51.082;17.080;2023-02-01T06:51:03;12.88;;;1.88;;
69280;SDS011;56392;51.082;17.080;2023-02-01T06:56:28;11.33;;;1.90;;
69280;SDS011;56392;51.082;17.080;2023-02-01T07:01:52;12.45;;;2.00;;
69280;SDS011;56392;51.082;17.080;2023-02-01T07:07:17;11.63;;;1.90;;
69280;SDS011;56392;51.082;17.080;2023-02-01T07:12:42;11.87;;;1.70;;
69280;SDS011;56392;51.082;17.080;2023-02-01T07:18:05;10.70;;;1.58;;
69280;SDS011;56392;51.082;17.080;2023-02-01T07:23:28;12.77;;;1.80;;
69280;SDS011;56392;51.082;17.080;2023-02-01T07:28:53;12.60;;;2.30;;
69280;SDS011;56392;51.082;17.080;2023-02-01T07:34:16;10.43;;;1.70;;
69280;SDS011;56392;51.082;17.080;2023-02-01T07:39:39;12.85;;;1.90;;
69280;SDS011;56392;51.082;17.080;2023-02-01T07:45:05;13.55;;;1.75;;
69280;SDS011;56392;51.082;17.080;2023-02-01T07:50:30;11.10;;;1.80;;
69280;SDS011;56392;51.082;17.080;2023-02-01T07:55:54;13.65;;;2.78;;
69280;SDS011;56392;51.082;17.080;2023-02-01T08:01:20;16.20;;;2.28;;
69280;SDS011;56392;51.082;17.080;2023-02-01T08:06:45;10.97;;;2.10;;
69280;SDS011;56392;51.082;17.080;2023-02-01T08:12:08;17.05;;;2.90;;
69280;SDS011;56392;51.082;17.080;2023-02-01T08:17:33;11.35;;;1.88;;
69280;SDS011;56392;51.082;17.080;2023-02-01T08:22:56;12.43;;;2.07;;
69280;SDS011;56392;51.082;17.080;2023-02-01T08:28:19;13.07;;;2.17;;
69280;SDS011;56392;51.082;17.080;2023-02-01T08:33:48;11.25;;;1.85;;
69280;SDS011;56392;51.082;17.080;2023-02-01T08:39:16;12.68;;;2.10;;
69280;SDS011;56392;51.082;17.080;2023-02-01T08:44:39;12.27;;;1.93;;
69280;SDS011;56392;51.082;17.080;2023-02-01T08:50:05;10.95;;;2.28;;
69280;SDS011;56392;51.082;17.080;2023-02-01T08:55:29;12.65;;;2.15;;
69280;SDS011;56392;51.082;17.080;2023-02-01T09:00:53;12.77;;;1.90;;
69280;SDS011;56392;51.082;17.080;2023-02-01T09:06:17;12.98;;;2.03;;
69280;SDS011;56392;51.082;17.080;2023-02-01T09:11:40;12.40;;;2.30;;
69280;SDS011;56392;51.082;17.080;2023-02-01T09:17:03;10.77;;;2.00;;
69280;SDS011;56392;51.082;17.080;2023-02-01T09:22:29;12.73;;;2.30;;
69280;SDS011;56392;51.082;17.080;2023-02-01T09:27:52;9.57;;;2.00;;
69280;SDS011;56392;51.082;17.080;2023-02-01T09:33:16;13.40;;;2.35;;
69280;SDS011;56392;51.082;17.080;2023-02-01T09:38:40;8.63;;;1.80;;
69280;SDS011;56392;51.082;17.080;2023-02-01T09:44:05;12.95;;;2.03;;
69280;SDS011;56392;51.082;17.080;2023-02-01T09:49:36;10.45;;;1.80;;
69280;SDS011;56392;51.082;17.080;2023-02-01T09:55:09;8.30;;;1.70;;
69280;SDS011;56392;51.082;17.080;2023-02-01T10:00:38;9.00;;;1.70;;
69280;SDS011;56392;51.082;17.080;2023-02-01T10:06:09;11.18;;;2.10;;
69280;SDS011;56392;51.082;17.080;2023-02-01T10:11:58;9.03;;;1.90;;
69280;SDS011;56392;51.082;17.080;2023-02-01T10:17:38;9.97;;;2.10;;
69280;SDS011;56392;51.082;17.080;2023-02-01T10:23:16;11.35;;;2.00;;
69280;SDS011;56392;51.082;17.080;2023-02-01T10:28:58;11.50;;;2.72;;
69280;SDS011;56392;51.082;17.080;2023-02-01T10:34:25;10.63;;;2.00;;
69280;SDS011;56392;51.082;17.080;2023-02-01T10:39:53;9.48;;;2.03;;
69280;SDS011;56392;51.082;17.080;2023-02-01T10:45:21;11.55;;;2.20;;
69280;SDS011;56392;51.082;17.080;2023-02-01T10:50:49;12.20;;;2.23;;
69280;SDS011;56392;51.082;17.080;2023-02-01T10:56:21;11.05;;;2.30;;
69280;SDS011;56392;51.082;17.080;2023-02-01T11:01:50;9.30;;;2.42;;
69280;SDS011;56392;51.082;17.080;2023-02-01T11:07:23;9.67;;;2.10;;
69280;SDS011;56392;51.082;17.080;2023-02-01T11:12:46;10.17;;;2.67;;
69280;SDS011;56392;51.082;17.080;2023-02-01T11:18:18;14.18;;;2.63;;
69280;SDS011;56392;51.082;17.080;2023-02-01T11:23:43;12.20;;;2.05;;
69280;SDS011;56392;51.082;17.080;2023-02-01T11:29:09;9.80;;;2.27;;
69280;SDS011;56392;51.082;17.080;2023-02-01T11:34:37;9.27;;;1.75;;
69280;SDS011;56392;51.082;17.080;2023-02-01T11:40:09;11.30;;;2.10;;
69280;SDS011;56392;51.082;17.080;2023-02-01T11:45:53;9.30;;;2.13;;
69280;SDS011;56392;51.082;17.080;2023-02-01T11:51:24;9.38;;;2.20;;
69280;SDS011;56392;51.082;17.080;2023-02-01T11:56:59;9.70;;;1.98;;
69280;SDS011;56392;51.082;17.080;2023-02-01T12:02:37;10.13;;;1.87;;
69280;SDS011;56392;51.082;17.080;2023-02-01T12:08:19;7.33;;;1.67;;
69280;SDS011;56392;51.082;17.080;2023-02-01T12:14:02;7.88;;;1.95;;
69280;SDS011;56392;51.082;17.080;2023-02-01T12:19:37;8.93;;;1.90;;
69280;SDS011;56392;51.082;17.080;2023-02-01T12:25:24;7.00;;;1.77;;
69280;SDS011;56392;51.082;17.080;2023-02-01T12:31:09;9.27;;;1.70;;
69280;SDS011;56392;51.082;17.080;2023-02-01T12:37:03;6.63;;;1.58;;
69280;SDS011;56392;51.082;17.080;2023-02-01T12:42:37;7.50;;;2.40;;
69280;SDS011;56392;51.082;17.080;2023-02-01T12:48:07;6.40;;;1.90;;
69280;SDS011;56392;51.082;17.080;2023-02-01T12:53:46;5.93;;;1.80;;
69280;SDS011;56392;51.082;17.080;2023-02-01T12:59:18;6.47;;;1.60;;
69280;SDS011;56392;51.082;17.080;2023-02-01T13:04:49;10.00;;;1.77;;
69280;SDS011;56392;51.082;17.080;2023-02-01T13:10:21;7.00;;;1.90;;
69280;SDS011;56392;51.082;17.080;2023-02-01T13:15:54;8.45;;;2.30;;
69280;SDS011;56392;51.082;17.080;2023-02-01T13:21:25;7.93;;;1.73;;
69280;SDS011;56392;51.082;17.080;2023-02-01T13:26:53;11.70;;;2.55;;
69280;SDS011;56392;51.082;17.080;2023-02-01T13:32:23;6.25;;;1.60;;
69280;SDS011;56392;51.082;17.080;2023-02-01T13:38:09;8.63;;;2.23;;
69280;SDS011;56392;51.082;17.080;2023-02-01T13:43:49;7.50;;;1.75;;
69280;SDS011;56392;51.082;17.080;2023-02-01T13:49:18;6.75;;;1.80;;
69280;SDS011;56392;51.082;17.080;2023-02-01T13:54:43;8.27;;;1.93;;
69280;SDS011;56392;51.082;17.080;2023-02-01T14:00:22;6.27;;;1.63;;
69280;SDS011;56392;51.082;17.080;2023-02-01T14:11:57;8.05;;;2.00;;
69280;SDS011;56392;51.082;17.080;2023-02-01T14:17:29;8.10;;;1.97;;
69280;SDS011;56392;51.082;17.080;2023-02-01T14:23:02;7.65;;;1.80;;
69280;SDS011;56392;51.082;17.080;2023-02-01T14:28:35;6.80;;;1.70;;
69280;SDS011;56392;51.082;17.080;2023-02-01T14:34:02;7.00;;;1.77;;
69280;SDS011;56392;51.082;17.080;2023-02-01T14:39:49;8.93;;;1.90;;
69280;SDS011;56392;51.082;17.080;2023-02-01T14:45:46;12.00;;;2.10;;
69280;SDS011;56392;51.082;17.080;2023-02-01T14:51:13;8.90;;;2.23;;
69280;SDS011;56392;51.082;17.080;2023-02-01T14:56:40;9.23;;;2.40;;
69280;SDS011;56392;51.082;17.080;2023-02-01T15:02:08;10.55;;;2.30;;
69280;SDS011;56392;51.082;17.080;2023-02-01T15:07:41;9.90;;;2.60;;
69280;SDS011;56392;51.082;17.080;2023-02-01T15:13:07;10.50;;;2.40;;
69280;SDS011;56392;51.082;17.080;2023-02-01T15:18:41;9.50;;;3.00;;
69280;SDS011;56392;51.082;17.080;2023-02-01T15:24:11;8.52;;;2.00;;
69280;SDS011;56392;51.082;17.080;2023-02-01T15:29:36;7.83;;;2.00;;
69280;SDS011;56392;51.082;17.080;2023-02-01T15:34:59;8.25;;;1.75;;
69280;SDS011;56392;51.082;17.080;2023-02-01T15:40:23;9.93;;;2.65;;
69280;SDS011;56392;51.082;17.080;2023-02-01T15:45:49;9.00;;;2.57;;
69280;SDS011;56392;51.082;17.080;2023-02-01T15:51:14;10.47;;;2.10;;
69280;SDS011;56392;51.082;17.080;2023-02-01T15:56:40;9.88;;;2.50;;
69280;SDS011;56392;51.082;17.080;2023-02-01T16:02:05;11.68;;;2.72;;
69280;SDS011;56392;51.082;17.080;2023-02-01T16:07:54;7.10;;;2.17;;
69280;SDS011;56392;51.082;17.080;2023-02-01T16:13:24;8.70;;;2.42;;
69280;SDS011;56392;51.082;17.080;2023-02-01T16:18:49;8.57;;;2.25;;
69280;SDS011;56392;51.082;17.080;2023-02-01T16:24:12;8.17;;;2.47;;
69280;SDS011;56392;51.082;17.080;2023-02-01T16:29:36;7.50;;;2.00;;
69280;SDS011;56392;51.082;17.080;2023-02-01T16:35:00;9.48;;;2.30;;
69280;SDS011;56392;51.082;17.080;2023-02-01T16:40:24;8.83;;;2.53;;
69280;SDS011;56392;51.082;17.080;2023-02-01T16:45:47;8.90;;;2.90;;
69280;SDS011;56392;51.082;17.080;2023-02-01T16:51:13;10.85;;;3.22;;
69280;SDS011;56392;51.082;17.080;2023-02-01T16:56:38;10.63;;;3.67;;
69280;SDS011;56392;51.082;17.080;2023-02-01T17:02:03;12.17;;;4.30;;
69280;SDS011;56392;51.082;17.080;2023-02-01T17:07:29;11.55;;;3.70;;
69280;SDS011;56392;51.082;17.080;2023-02-01T17:12:52;12.85;;;4.47;;
69280;SDS011;56392;51.082;17.080;2023-02-01T17:18:16;12.60;;;4.63;;
69280;SDS011;56392;51.082;17.080;2023-02-01T17:23:42;14.77;;;4.45;;
69280;SDS011;56392;51.082;17.080;2023-02-01T17:29:05;12.93;;;5.10;;
69280;SDS011;56392;51.082;17.080;2023-02-01T17:34:28;11.50;;;4.60;;
69280;SDS011;56392;51.082;17.080;2023-02-01T17:39:53;12.67;;;4.57;;
69280;SDS011;56392;51.082;17.080;2023-02-01T17:45:26;16.35;;;5.65;;
69280;SDS011;56392;51.082;17.080;2023-02-01T17:50:56;12.95;;;5.30;;
69280;SDS011;56392;51.082;17.080;2023-02-01T17:56:21;17.57;;;5.00;;
69280;SDS011;56392;51.082;17.080;2023-02-01T18:01:49;14.77;;;4.35;;
69280;SDS011;56392;51.082;17.080;2023-02-01T18:07:13;14.82;;;4.20;;
69280;SDS011;56392;51.082;17.080;2023-02-01T18:12:38;9.47;;;3.23;;
69280;SDS011;56392;51.082;17.080;2023-02-01T18:18:01;9.93;;;2.95;;
69280;SDS011;56392;51.082;17.080;2023-02-01T18:23:24;10.75;;;2.70;;
69280;SDS011;56392;51.082;17.080;2023-02-01T18:28:49;10.00;;;2.70;;
69280;SDS011;56392;51.082;17.080;2023-02-01T18:34:12;11.03;;;2.80;;
69280;SDS011;56392;51.082;17.080;2023-02-01T18:39:41;8.27;;;2.03;;
69280;SDS011;56392;51.082;17.080;2023-02-01T18:45:08;10.55;;;2.70;;
69280;SDS011;56392;51.082;17.080;2023-02-01T18:50:44;9.37;;;2.43;;
69280;SDS011;56392;51.082;17.080;2023-02-01T18:56:09;8.10;;;2.40;;
69280;SDS011;56392;51.082;17.080;2023-02-01T19:01:34;8.55;;;2.20;;
69280;SDS011;56392;51.082;17.080;2023-02-01T19:06:57;7.67;;;2.30;;
69280;SDS011;56392;51.082;17.080;2023-02-01T19:12:21;10.23;;;3.00;;
69280;SDS011;56392;51.082;17.080;2023-02-01T19:17:46;9.90;;;2.70;;
69280;SDS011;56392;51.082;17.080;2023-02-01T19:23:10;9.77;;;2.67;;
69280;SDS011;56392;51.082;17.080;2023-02-01T19:28:34;9.30;;;2.80;;
69280;SDS011;56392;51.082;17.080;2023-02-01T19:34:00;9.18;;;3.45;;
69280;SDS011;56392;51.082;17.080;2023-02-01T19:39:23;8.38;;;2.90;;
69280;SDS011;56392;51.082;17.080;2023-02-01T19:44:46;9.03;;;3.03;;
69280;SDS011;56392;51.082;17.080;2023-02-01T19:50:14;12.60;;;3.80;;
69280;SDS011;56392;51.082;17.080;2023-02-01T19:55:43;8.43;;;2.47;;
69280;SDS011;56392;51.082;17.080;2023-02-01T20:01:07;5.37;;;1.40;;
69280;SDS011;56392;51.082;17.080;2023-02-01T20:06:33;4.65;;;1.27;;
69280;SDS011;56392;51.082;17.080;2023-02-01T20:12:01;6.75;;;1.40;;
69280;SDS011;56392;51.082;17.080;2023-02-01T20:17:24;5.77;;;1.33;;
69280;SDS011;56392;51.082;17.080;2023-02-01T20:22:50;6.07;;;1.07;;
69280;SDS011;56392;51.082;17.080;2023-02-01T20:28:14;3.42;;;0.77;;
69280;SDS011;56392;51.082;17.080;2023-02-01T20:33:37;4.70;;;0.90;;
69280;SDS011;56392;51.082;17.080;2023-02-01T20:39:07;5.23;;;0.80;;
69280;SDS011;56392;51.082;17.080;2023-02-01T20:44:33;5.05;;;1.10;;
69280;SDS011;56392;51.082;17.080;2023-02-01T20:49:56;7.32;;;1.55;;
69280;SDS011;56392;51.082;17.080;2023-02-01T20:55:23;6.20;;;1.30;;
69280;SDS011;56392;51.082;17.080;2023-02-01T21:00:46;9.05;;;2.10;;
69280;SDS011;56392;51.082;17.080;2023-02-01T21:06:10;8.82;;;1.63;;
69280;SDS011;56392;51.082;17.080;2023-02-01T21:11:35;5.23;;;1.57;;
69280;SDS011;56392;51.082;17.080;2023-02-01T21:16:58;6.80;;;1.80;;
69280;SDS011;56392;51.082;17.080;2023-02-01T21:22:21;7.20;;;2.13;;
69280;SDS011;56392;51.082;17.080;2023-02-01T21:27:46;7.63;;;1.77;;
69280;SDS011;56392;51.082;17.080;2023-02-01T21:33:09;6.90;;;2.00;;
69280;SDS011;56392;51.082;17.080;2023-02-01T21:38:32;6.60;;;2.10;;
69280;SDS011;56392;51.082;17.080;2023-02-01T21:43:57;6.95;;;2.10;;
69280;SDS011;56392;51.082;17.080;2023-02-01T21:49:21;8.93;;;2.20;;
69280;SDS011;56392;51.082;17.080;2023-02-01T21:54:46;6.47;;;1.90;;
69280;SDS011;56392;51.082;17.080;2023-02-01T22:00:11;6.40;;;1.88;;
69280;SDS011;56392;51.082;17.080;2023-02-01T22:05:35;7.63;;;2.17;;
69280;SDS011;56392;51.082;17.080;2023-02-01T22:10:58;7.10;;;2.10;;
69280;SDS011;56392;51.082;17.080;2023-02-01T22:16:23;8.75;;;2.30;;
69280;SDS011;56392;51.082;17.080;2023-02-01T22:21:46;9.05;;;2.10;;
69280;SDS011;56392;51.082;17.080;2023-02-01T22:27:10;10.53;;;2.33;;
69280;SDS011;56392;51.082;17.080;2023-02-01T22:32:35;8.77;;;2.47;;
69280;SDS011;56392;51.082;17.080;2023-02-01T22:37:58;8.32;;;2.63;;
69280;SDS011;56392;51.082;17.080;2023-02-01T22:43:21;10.47;;;2.50;;
69280;SDS011;56392;51.082;17.080;2023-02-01T22:48:46;10.07;;;2.83;;
69280;SDS011;56392;51.082;17.080;2023-02-01T22:54:12;8.95;;;2.53;;
69280;SDS011;56392;51.082;17.080;2023-02-01T22:59:38;10.73;;;2.40;;
69280;SDS011;56392;51.082;17.080;2023-02-01T23:05:03;8.30;;;2.13;;
69280;SDS011;56392;51.082;17.080;2023-02-01T23:10:26;9.45;;;2.03;;
69280;SDS011;56392;51.082;17.080;2023-02-01T23:15:49;8.25;;;1.70;;
69280;SDS011;56392;51.082;17.080;2023-02-01T23:21:14;10.70;;;2.00;;
69280;SDS011;56392;51.082;17.080;2023-02-01T23:26:38;12.32;;;2.47;;
69280;SDS011;56392;51.082;17.080;2023-02-01T23:32:04;11.27;;;1.73;;
69280;SDS011;56392;51.082;17.080;2023-02-01T23:37:28;9.80;;;1.90;;
69280;SDS011;56392;51.082;17.080;2023-02-01T23:42:51;10.65;;;1.70;;
69280;SDS011;56392;51.082;17.080;2023-02-01T23:48:28;9.43;;;2.13;;
69280;SDS011;56392;51.082;17.080;2023-02-01T23:53:53;11.57;;;1.80;;
69280;SDS011;56392;51.082;17.080;2023-02-01T23:59:17;8.03;;;1.90;;
